createdAt,value
2023-10-10T00:01:46.015Z,97967.34
2023-10-10T00:04:13.884Z,97975.00
2023-10-10T00:06:42.234Z,97973.06
2023-10-10T00:09:12.221Z,97966.81
2023-10-10T00:11:43.374Z,97964.19
2023-10-10T00:14:19.294Z,97960.03
2023-10-10T00:16:49.313Z,97962.25
2023-10-10T00:19:21.926Z,97963.63
2023-10-10T00:21:49.967Z,97970.53
2023-10-10T00:24:21.685Z,97966.66
2023-10-10T00:26:51.722Z,97958.59
2023-10-10T00:29:27.879Z,97961.31
2023-10-10T00:32:07.019Z,97952.81
2023-10-10T00:34:38.493Z,97950.75
2023-10-10T00:37:14.453Z,97954.09
2023-10-10T00:39:42.140Z,97949.19
2023-10-10T00:42:20.997Z,97964.44
2023-10-10T00:44:49.749Z,97965.53
2023-10-10T00:47:22.742Z,97968.72
2023-10-10T00:49:51.568Z,97983.50
2023-10-10T00:52:19.649Z,97989.19
2023-10-10T00:54:48.511Z,97981.66
2023-10-10T00:57:18.920Z,97955.53
2023-10-10T00:59:54.773Z,97958.56
2023-10-10T01:02:22.265Z,97944.69
2023-10-10T01:04:51.493Z,97959.84
2023-10-10T01:07:23.031Z,97945.94
2023-10-10T01:09:57.830Z,97937.28
2023-10-10T01:12:30.191Z,97946.69
2023-10-10T01:14:58.992Z,97941.50
2023-10-10T01:17:33.817Z,97939.97
2023-10-10T01:20:35.312Z,97953.88
2023-10-10T01:23:04.518Z,97941.34
2023-10-10T01:25:34.117Z,97946.63
2023-10-10T01:28:15.082Z,97955.06
2023-10-10T01:30:58.689Z,97958.25
2023-10-10T01:33:37.957Z,97967.38
2023-10-10T01:36:23.064Z,97959.63
2023-10-10T01:39:01.319Z,97949.56
2023-10-10T01:41:41.459Z,97962.50
2023-10-10T01:44:24.306Z,97961.50
2023-10-10T01:46:54.512Z,97962.88
2023-10-10T01:49:23.054Z,97963.38
2023-10-10T01:51:57.422Z,97965.88
2023-10-10T01:54:36.130Z,97961.44
2023-10-10T01:57:08.617Z,97964.75
2023-10-10T01:59:40.156Z,97963.09
2023-10-10T02:02:12.203Z,97956.38
2023-10-10T02:04:40.873Z,97958.66
2023-10-10T02:07:15.514Z,97952.31
2023-10-10T02:09:44.922Z,97962.63
2023-10-10T02:12:18.215Z,97956.31
2023-10-10T02:14:45.372Z,97950.53
2023-10-10T02:17:28.128Z,97957.84
2023-10-10T02:19:59.583Z,97957.78
2023-10-10T02:22:48.958Z,97960.84
2023-10-10T02:25:25.892Z,97966.56
2023-10-10T02:27:56.616Z,97970.09
2023-10-10T02:30:38.176Z,97962.59
2023-10-10T02:33:18.347Z,97959.28
2023-10-10T02:36:04.534Z,97964.50
2023-10-10T02:38:34.593Z,97970.28
2023-10-10T02:41:34.524Z,97970.28
2023-10-10T02:44:11.258Z,97970.84
2023-10-10T02:46:44.105Z,97960.34
2023-10-10T02:49:31.789Z,97962.84
2023-10-10T02:52:02.432Z,97965.09
2023-10-10T02:54:35.792Z,97970.22
2023-10-10T02:57:23.235Z,97973.13
2023-10-10T03:00:00.646Z,97983.69
2023-10-10T03:02:31.841Z,97973.28
2023-10-10T03:05:03.037Z,97977.75
2023-10-10T03:07:31.464Z,97990.78
2023-10-10T03:10:23.794Z,97985.81
2023-10-10T03:12:54.151Z,97975.53
2023-10-10T03:15:21.609Z,97992.88
2023-10-10T03:18:10.705Z,97979.56
2023-10-10T03:20:38.910Z,97981.22
2023-10-10T03:23:15.710Z,97990.25
2023-10-10T03:26:05.393Z,97969.88
2023-10-10T03:28:48.749Z,97991.38
2023-10-10T03:31:15.950Z,97982.94
2023-10-10T03:33:44.983Z,97985.25
2023-10-10T03:36:19.984Z,97991.34
2023-10-10T03:38:50.197Z,97996.66
2023-10-10T03:41:24.990Z,97992.38
2023-10-10T03:44:15.620Z,98002.19
2023-10-10T03:46:56.982Z,97988.75
2023-10-10T03:49:51.774Z,97999.56
2023-10-10T03:52:43.889Z,97993.47
2023-10-10T03:55:30.040Z,97995.38
2023-10-10T03:58:15.609Z,98001.22
2023-10-10T04:01:00.862Z,98008.44
2023-10-10T04:03:46.363Z,98004.56
2023-10-10T04:06:32.446Z,98005.41
2023-10-10T04:09:17.889Z,97995.41
2023-10-10T04:12:03.642Z,98009.81
2023-10-10T04:14:49.148Z,98010.78
2023-10-10T04:17:34.637Z,98011.31
2023-10-10T04:20:20.350Z,98006.47
2023-10-10T04:23:05.508Z,98006.91
2023-10-10T04:25:50.979Z,98010.09
2023-10-10T04:28:36.243Z,98002.75
2023-10-10T04:31:25.743Z,98005.22
2023-10-10T04:34:11.854Z,97999.00
2023-10-10T04:36:57.249Z,97986.38
2023-10-10T04:39:43.091Z,98001.19
2023-10-10T04:42:28.438Z,98003.84
2023-10-10T04:45:13.945Z,97999.84
2023-10-10T04:47:59.704Z,97996.22
2023-10-10T04:50:45.424Z,97991.78
2023-10-10T04:53:30.683Z,97998.44
2023-10-10T04:56:17.393Z,97984.88
2023-10-10T04:59:03.179Z,97987.78
2023-10-10T05:01:48.899Z,97995.41
2023-10-10T05:04:34.419Z,97989.03
2023-10-10T05:07:19.751Z,97995.41
2023-10-10T05:10:05.153Z,97995.28
2023-10-10T05:12:50.526Z,97986.53
2023-10-10T05:15:35.670Z,97994.28
2023-10-10T05:18:20.787Z,97992.63
2023-10-10T05:21:06.481Z,98003.47
2023-10-10T05:23:36.299Z,98006.78
2023-10-10T05:26:07.270Z,98001.38
2023-10-10T05:28:34.257Z,98001.25
2023-10-10T05:31:04.746Z,98010.38
2023-10-10T05:33:32.235Z,98009.13
2023-10-10T05:36:01.056Z,98007.06
2023-10-10T05:38:28.171Z,98016.78
2023-10-10T05:40:55.679Z,98016.47
2023-10-10T05:43:27.762Z,98025.50
2023-10-10T05:45:55.424Z,98034.50
2023-10-10T05:48:23.130Z,98031.97
2023-10-10T05:50:50.159Z,98030.31
2023-10-10T05:53:18.418Z,98033.34
2023-10-10T05:55:51.639Z,98038.75
2023-10-10T05:58:19.483Z,98040.53
2023-10-10T06:00:50.494Z,98038.69
2023-10-10T06:03:18.391Z,98044.97
2023-10-10T06:05:45.823Z,98054.34
2023-10-10T06:08:14.355Z,98054.88
2023-10-10T06:10:41.404Z,98060.94
2023-10-10T06:13:08.813Z,98062.56
2023-10-10T06:15:36.530Z,98069.91
2023-10-10T06:18:19.625Z,98065.53
2023-10-10T06:21:03.043Z,98070.94
2023-10-10T06:23:35.257Z,98077.44
2023-10-10T06:26:03.897Z,98075.13
2023-10-10T06:28:37.270Z,98083.13
2023-10-10T06:31:11.501Z,98080.16
2023-10-10T06:33:42.485Z,98081.03
2023-10-10T06:36:40.135Z,98085.72
2023-10-10T06:39:06.931Z,98087.91
2023-10-10T06:41:43.454Z,98083.31
2023-10-10T06:44:18.622Z,98085.09
2023-10-10T06:46:49.935Z,98087.78
2023-10-10T06:49:17.371Z,98094.31
2023-10-10T06:51:44.408Z,98101.47
2023-10-10T06:54:28.827Z,98101.53
2023-10-10T06:57:02.364Z,98110.34
2023-10-10T06:59:30.282Z,98108.72
2023-10-10T07:02:01.757Z,98110.31
2023-10-10T07:04:29.336Z,98104.34
2023-10-10T07:07:02.100Z,98109.03
2023-10-10T07:09:32.637Z,98103.63
2023-10-10T07:12:12.833Z,98109.66
2023-10-10T07:14:48.243Z,98117.50
2023-10-10T07:17:15.889Z,98125.88
2023-10-10T07:20:03.957Z,98132.72
2023-10-10T07:22:35.896Z,98130.84
2023-10-10T07:25:25.742Z,98142.38
2023-10-10T07:27:52.665Z,98133.16
2023-10-10T07:30:19.960Z,98142.94
2023-10-10T07:32:51.675Z,98141.59
2023-10-10T07:35:26.763Z,98148.50
2023-10-10T07:37:54.463Z,98158.28
2023-10-10T07:40:22.338Z,98146.41
2023-10-10T07:43:00.381Z,98143.16
2023-10-10T07:45:43.255Z,98144.75
2023-10-10T07:48:11.550Z,98151.25
2023-10-10T07:50:57.251Z,98141.66
2023-10-10T07:53:35.429Z,98145.63
2023-10-10T07:56:02.624Z,98136.69
2023-10-10T07:58:52.757Z,98143.03
2023-10-10T08:01:20.743Z,98142.50
2023-10-10T08:03:48.746Z,98138.03
2023-10-10T08:06:23.503Z,98148.34
2023-10-10T08:09:12.081Z,98140.38
2023-10-10T08:11:39.394Z,98142.38
2023-10-10T08:14:13.299Z,98143.88
2023-10-10T08:16:42.339Z,98144.34
2023-10-10T08:19:11.850Z,98140.69
2023-10-10T08:21:40.741Z,98149.31
2023-10-10T08:24:09.307Z,98147.53
2023-10-10T08:26:42.588Z,98147.00
2023-10-10T08:29:10.645Z,98141.34
2023-10-10T08:31:39.419Z,98137.09
2023-10-10T08:34:09.816Z,98135.09
2023-10-10T08:36:38.500Z,98138.94
2023-10-10T08:39:18.033Z,98135.19
2023-10-10T08:41:46.485Z,98143.31
2023-10-10T08:44:18.817Z,98141.56
2023-10-10T08:46:49.844Z,98139.44
2023-10-10T08:49:17.287Z,98132.59
2023-10-10T08:51:46.310Z,98135.22
2023-10-10T08:54:17.289Z,98145.63
2023-10-10T08:57:11.576Z,98156.63
2023-10-10T08:59:43.566Z,98150.03
2023-10-10T09:02:13.727Z,98149.03
2023-10-10T09:04:40.688Z,98153.13
2023-10-10T09:07:12.470Z,98144.00
2023-10-10T09:09:41.201Z,98147.91
2023-10-10T09:12:16.188Z,98145.34
2023-10-10T09:14:51.546Z,98146.66
2023-10-10T09:17:46.496Z,98146.44
2023-10-10T09:20:24.453Z,98143.91
2023-10-10T09:23:13.365Z,98138.47
2023-10-10T09:25:45.164Z,98143.66
2023-10-10T09:28:16.674Z,98145.50
2023-10-10T09:31:06.601Z,98149.03
2023-10-10T09:33:35.184Z,98145.88
2023-10-10T09:36:10.268Z,98153.88
2023-10-10T09:38:45.109Z,98145.59
2023-10-10T09:41:32.431Z,98152.88
2023-10-10T09:44:25.464Z,98145.16
2023-10-10T09:47:04.013Z,98141.28
2023-10-10T09:49:53.045Z,98138.53
2023-10-10T09:52:40.843Z,98150.69
2023-10-10T09:55:15.553Z,98142.97
2023-10-10T09:57:59.364Z,98136.31
2023-10-10T10:00:34.470Z,98141.78
2023-10-10T10:03:22.065Z,98133.25
2023-10-10T10:06:19.332Z,98133.22
2023-10-10T10:09:10.635Z,98142.28
2023-10-10T10:11:53.076Z,98137.47
2023-10-10T10:14:29.889Z,98133.97
2023-10-10T10:17:17.314Z,98124.16
2023-10-10T10:19:49.304Z,98133.13
2023-10-10T10:22:18.754Z,98132.00
2023-10-10T10:24:46.366Z,98143.16
2023-10-10T10:27:33.201Z,98130.38
2023-10-10T10:30:20.756Z,98142.53
2023-10-10T10:32:54.767Z,98140.47
2023-10-10T10:35:37.567Z,98137.84
2023-10-10T10:38:07.926Z,98134.44
2023-10-10T10:40:41.578Z,98131.84
2023-10-10T10:43:15.746Z,98136.13
2023-10-10T10:46:08.573Z,98128.25
2023-10-10T10:48:36.725Z,98131.69
2023-10-10T10:51:26.274Z,98133.41
2023-10-10T10:54:03.474Z,98128.63
2023-10-10T10:56:31.084Z,98123.75
2023-10-10T10:59:15.325Z,98122.66
2023-10-10T11:01:52.887Z,98128.78
2023-10-10T11:04:44.437Z,98125.22
2023-10-10T11:07:27.365Z,98112.88
2023-10-10T11:09:55.901Z,98114.72
2023-10-10T11:12:33.256Z,98101.31
2023-10-10T11:15:06.182Z,98108.31
2023-10-10T11:17:39.482Z,98109.78
2023-10-10T11:20:29.377Z,98108.03
2023-10-10T11:23:08.704Z,98100.59
2023-10-10T11:25:48.236Z,98100.38
2023-10-10T11:28:25.633Z,98104.28
2023-10-10T11:30:54.443Z,98110.38
2023-10-10T11:33:47.484Z,98118.81
2023-10-10T11:36:31.312Z,98130.84
2023-10-10T11:39:18.165Z,98136.91
2023-10-10T11:41:46.757Z,98133.28
2023-10-10T11:44:20.295Z,98144.28
2023-10-10T11:46:48.325Z,98135.56
2023-10-10T11:49:16.736Z,98126.03
2023-10-10T11:51:43.629Z,98126.13
2023-10-10T11:54:10.560Z,98133.34
2023-10-10T11:56:37.406Z,98140.09
2023-10-10T11:59:11.519Z,98136.25
2023-10-10T12:01:58.704Z,98130.66
2023-10-10T12:04:34.592Z,98137.06
2023-10-10T12:07:06.171Z,98123.94
2023-10-10T12:09:34.031Z,98120.84
2023-10-10T12:12:04.258Z,98119.59
2023-10-10T12:14:32.519Z,98111.34
2023-10-10T12:17:00.745Z,98105.78
2023-10-10T12:19:30.278Z,98117.38
2023-10-10T12:22:02.662Z,98125.53
2023-10-10T12:24:30.714Z,98137.88
2023-10-10T12:26:57.560Z,98131.72
2023-10-10T12:29:25.846Z,98120.50
2023-10-10T12:31:57.040Z,98117.13
2023-10-10T12:34:24.872Z,98115.28
2023-10-10T12:37:00.545Z,98107.19
2023-10-10T12:39:31.091Z,98105.81
2023-10-10T12:41:58.372Z,98106.09
2023-10-10T12:44:25.346Z,98112.13
2023-10-10T12:47:00.368Z,98108.81
2023-10-10T12:49:30.359Z,98111.25
2023-10-10T12:51:58.323Z,98113.13
2023-10-10T12:54:36.093Z,98107.97
2023-10-10T12:57:07.303Z,98109.47
2023-10-10T12:59:35.075Z,98108.75
2023-10-10T13:02:04.885Z,98102.34
2023-10-10T13:04:37.562Z,98095.38
2023-10-10T13:07:05.114Z,98101.88
2023-10-10T13:09:33.662Z,98099.28
2023-10-10T13:12:04.327Z,98100.38
2023-10-10T13:14:34.401Z,98102.31
2023-10-10T13:17:22.067Z,98110.19
2023-10-10T13:19:50.356Z,98107.09
2023-10-10T13:22:22.175Z,98104.56
2023-10-10T13:24:50.493Z,98103.16
2023-10-10T13:27:19.223Z,98099.03
2023-10-10T13:29:46.318Z,98091.75
2023-10-10T13:32:13.418Z,98094.88
2023-10-10T13:34:40.270Z,98097.75
2023-10-10T13:39:45.402Z,98094.47
2023-10-10T13:42:15.941Z,98089.66
2023-10-10T13:44:43.805Z,98079.63
2023-10-10T13:47:11.704Z,98084.59
2023-10-10T13:49:45.734Z,98085.53
2023-10-10T13:52:14.351Z,98081.72
2023-10-10T13:54:41.387Z,98074.19
2023-10-10T13:57:09.001Z,98068.81
2023-10-10T13:59:36.412Z,98069.44
2023-10-10T14:02:05.764Z,98073.59
2023-10-10T14:04:47.564Z,98080.19
2023-10-10T14:07:17.959Z,98077.06
2023-10-10T14:10:02.299Z,98078.25
2023-10-10T14:12:33.560Z,98067.50
2023-10-10T14:15:02.718Z,98064.97
2023-10-10T14:17:31.034Z,98074.63
2023-10-10T14:19:59.683Z,98077.66
2023-10-10T14:22:28.185Z,98082.03
2023-10-10T14:24:58.919Z,98085.19
2023-10-10T14:27:27.084Z,98085.38
2023-10-10T14:29:56.099Z,98079.63
2023-10-10T14:32:38.748Z,98072.22
2023-10-10T14:35:07.016Z,98075.09
2023-10-10T14:37:49.949Z,98079.13
2023-10-10T14:40:20.925Z,98072.56
2023-10-10T14:42:47.726Z,98063.75
2023-10-10T14:45:14.619Z,98066.38
2023-10-10T14:47:45.160Z,98069.97
2023-10-10T14:50:14.287Z,98074.19
2023-10-10T14:52:48.435Z,98076.47
2023-10-10T14:55:28.912Z,98072.38
2023-10-10T14:57:57.361Z,98077.50
2023-10-10T15:00:26.150Z,98069.25
2023-10-10T15:02:56.761Z,98064.56
2023-10-10T15:05:27.797Z,98065.59
2023-10-10T15:07:55.631Z,98068.56
2023-10-10T15:10:27.421Z,98073.03
2023-10-10T15:12:55.100Z,98076.22
2023-10-10T15:15:24.280Z,98076.53
2023-10-10T15:17:51.767Z,98073.53
2023-10-10T15:20:18.716Z,98082.06
2023-10-10T15:22:45.522Z,98080.31
2023-10-10T15:25:13.012Z,98091.81
2023-10-10T15:27:43.053Z,98092.34
2023-10-10T15:30:10.774Z,98089.75
2023-10-10T15:32:57.884Z,98080.25
2023-10-10T15:35:25.326Z,98089.31
2023-10-10T15:37:53.641Z,98095.53
2023-10-10T15:40:23.593Z,98085.81
2023-10-10T15:42:52.422Z,98090.44
2023-10-10T15:45:22.667Z,98108.91
2023-10-10T15:47:54.412Z,98104.72
2023-10-10T15:50:25.276Z,98105.75
2023-10-10T15:52:52.513Z,98115.25
2023-10-10T15:55:24.568Z,98116.94
2023-10-10T15:57:54.628Z,98122.38
2023-10-10T16:00:31.208Z,98116.69
2023-10-10T16:02:58.150Z,98116.13
2023-10-10T16:05:26.583Z,98135.16
2023-10-10T16:08:08.338Z,98128.44
2023-10-10T16:10:38.889Z,98137.59
2023-10-10T16:13:08.865Z,98138.69
2023-10-10T16:15:35.728Z,98136.94
2023-10-10T16:18:05.512Z,98141.88
2023-10-10T16:20:36.743Z,98140.13
2023-10-10T16:23:04.317Z,98145.72
2023-10-10T16:25:31.158Z,98147.13
2023-10-10T16:27:59.199Z,98150.56
2023-10-10T16:30:26.667Z,98164.97
2023-10-10T16:32:53.556Z,98163.19
2023-10-10T16:35:21.918Z,98159.06
2023-10-10T16:37:50.165Z,98157.13
2023-10-10T16:40:18.734Z,98151.69
2023-10-10T16:42:46.864Z,98163.34
2023-10-10T16:45:13.916Z,98172.50
2023-10-10T16:47:43.640Z,98169.69
2023-10-10T16:50:11.164Z,98178.69
2023-10-10T16:52:41.863Z,98179.19
2023-10-10T16:55:13.568Z,98178.38
2023-10-10T16:57:41.614Z,98174.25
2023-10-10T17:00:14.262Z,98183.22
2023-10-10T17:02:41.373Z,98183.03
2023-10-10T17:05:14.708Z,98183.53
2023-10-10T17:07:42.077Z,98183.84
2023-10-10T17:10:14.988Z,98184.03
2023-10-10T17:12:45.905Z,98183.53
2023-10-10T17:15:20.189Z,98188.63
2023-10-10T17:17:47.796Z,98187.13
2023-10-10T17:20:18.236Z,98190.94
2023-10-10T17:22:52.028Z,98188.44
2023-10-10T17:25:19.619Z,98187.41
2023-10-10T17:27:50.862Z,98191.38
2023-10-10T17:30:17.933Z,98189.22
2023-10-10T17:32:47.426Z,98197.97
2023-10-10T17:35:14.664Z,98193.97
2023-10-10T17:37:41.535Z,98199.09
2023-10-10T17:40:14.418Z,98199.91
2023-10-10T17:42:47.533Z,98201.47
2023-10-10T17:45:14.603Z,98214.22
2023-10-10T17:47:41.771Z,98213.34
2023-10-10T17:50:09.053Z,98220.63
2023-10-10T17:52:35.955Z,98229.25
2023-10-10T17:55:03.163Z,98227.22
2023-10-10T17:57:32.256Z,98232.16
2023-10-10T18:00:00.336Z,98229.44
2023-10-10T18:02:27.353Z,98232.78
2023-10-10T18:04:54.994Z,98230.03
2023-10-10T18:07:24.777Z,98231.69
2023-10-10T18:09:55.875Z,98232.34
2023-10-10T18:12:23.885Z,98236.72
2023-10-10T18:14:54.958Z,98244.47
2023-10-10T18:17:23.595Z,98242.59
2023-10-10T18:19:51.233Z,98254.47
2023-10-10T18:22:20.042Z,98254.91
2023-10-10T18:24:48.686Z,98260.22
2023-10-10T18:27:18.182Z,98260.53
2023-10-10T18:29:45.394Z,98254.53
2023-10-10T18:32:12.409Z,98254.19
2023-10-10T18:34:42.955Z,98250.25
2023-10-10T18:37:14.121Z,98253.63
2023-10-10T18:39:43.719Z,98256.44
2023-10-10T18:42:12.946Z,98249.41
2023-10-10T18:44:41.207Z,98255.69
2023-10-10T18:47:10.510Z,98252.19
2023-10-10T18:49:37.354Z,98258.63
2023-10-10T18:52:06.242Z,98253.78
2023-10-10T18:54:33.555Z,98246.59
2023-10-10T18:57:00.520Z,98258.03
2023-10-10T18:59:29.139Z,98268.75
2023-10-10T19:01:57.143Z,98268.38
2023-10-10T19:04:24.311Z,98265.16
2023-10-10T19:06:51.526Z,98273.53
2023-10-10T19:09:19.558Z,98278.75
2023-10-10T19:11:46.751Z,98279.34
2023-10-10T19:14:14.379Z,98282.69
2023-10-10T19:16:41.512Z,98288.97
2023-10-10T19:19:08.797Z,98284.09
2023-10-10T19:21:36.124Z,98283.84
2023-10-10T19:24:03.337Z,98283.56
2023-10-10T19:26:30.567Z,98287.03
2023-10-10T19:28:58.699Z,98291.13
2023-10-10T19:31:25.704Z,98291.41
2023-10-10T19:33:52.738Z,98290.84
2023-10-10T19:36:21.496Z,98287.78
2023-10-10T19:38:49.113Z,98290.47
2023-10-10T19:41:16.204Z,98282.16
2023-10-10T19:43:43.211Z,98289.22
2023-10-10T19:46:13.015Z,98286.13
2023-10-10T19:48:43.883Z,98294.06
2023-10-10T19:51:18.817Z,98280.84
2023-10-10T19:53:50.528Z,98288.09
2023-10-10T19:56:18.292Z,98288.56
2023-10-10T19:58:47.168Z,98290.94
2023-10-10T20:01:15.054Z,98287.88
2023-10-10T20:03:44.715Z,98284.28
2023-10-10T20:06:22.740Z,98287.88
2023-10-10T20:08:54.253Z,98282.91
2023-10-10T20:11:22.810Z,98285.16
2023-10-10T20:13:50.693Z,98287.63
2023-10-10T20:16:20.654Z,98278.78
2023-10-10T20:18:48.946Z,98290.56
2023-10-10T20:21:17.793Z,98286.13
2023-10-10T20:23:45.451Z,98290.72
2023-10-10T20:26:20.508Z,98284.63
2023-10-10T20:28:49.360Z,98284.91
2023-10-10T20:31:19.822Z,98292.28
2023-10-10T20:33:49.053Z,98290.06
2023-10-10T20:36:18.115Z,98285.88
2023-10-10T20:38:45.881Z,98291.06
2023-10-10T20:41:15.549Z,98295.34
2023-10-10T20:43:44.084Z,98291.47
2023-10-10T20:46:20.394Z,98292.41
2023-10-10T20:48:48.023Z,98293.84
2023-10-10T20:51:15.047Z,98292.16
2023-10-10T20:53:46.962Z,98292.84
2023-10-10T20:56:14.664Z,98290.38
2023-10-10T20:58:41.726Z,98296.06
2023-10-10T21:01:13.298Z,98293.84
2023-10-10T21:03:40.559Z,98289.50
2023-10-10T21:06:07.551Z,98292.72
2023-10-10T21:08:34.690Z,98286.34
2023-10-10T21:11:08.286Z,98287.03
2023-10-10T21:13:35.958Z,98291.63
2023-10-10T21:16:03.186Z,98287.69
2023-10-10T21:18:30.078Z,98289.94
2023-10-10T21:21:04.109Z,98280.34
2023-10-10T21:23:32.458Z,98288.13
2023-10-10T21:25:59.400Z,98287.59
2023-10-10T21:28:26.443Z,98284.38
2023-10-10T21:30:54.036Z,98286.56
2023-10-10T21:33:21.038Z,98289.94
2023-10-10T21:35:50.823Z,98303.50
2023-10-10T21:38:18.641Z,98289.72
2023-10-10T21:40:45.847Z,98287.09
2023-10-10T21:43:12.912Z,98292.09
2023-10-10T21:45:40.361Z,98282.09
2023-10-10T21:48:10.860Z,98292.66
2023-10-10T21:50:42.206Z,98294.88
2023-10-10T21:53:09.431Z,98294.31
2023-10-10T21:55:38.667Z,98288.50
2023-10-10T21:58:06.431Z,98290.72
2023-10-10T22:00:33.612Z,98287.38
2023-10-10T22:03:05.947Z,98281.53
2023-10-10T22:05:33.800Z,98284.03
2023-10-10T22:08:01.884Z,98279.47
2023-10-10T22:10:33.739Z,98281.53
2023-10-10T22:13:07.878Z,98276.66
2023-10-10T22:15:36.430Z,98274.53
2023-10-10T22:18:07.629Z,98272.34
2023-10-10T22:20:35.494Z,98279.28
2023-10-10T22:23:02.754Z,98277.31
2023-10-10T22:25:33.265Z,98283.00
2023-10-10T22:28:02.062Z,98274.50
2023-10-10T22:30:33.880Z,98275.91
2023-10-10T22:33:01.474Z,98270.50
2023-10-10T22:35:29.871Z,98277.41
2023-10-10T22:37:59.982Z,98266.56
2023-10-10T22:40:27.910Z,98275.88
2023-10-10T22:42:55.853Z,98276.41
2023-10-10T22:45:23.705Z,98264.63
2023-10-10T22:47:54.864Z,98272.22
2023-10-10T22:50:22.576Z,98259.03
2023-10-10T22:52:54.311Z,98273.19
2023-10-10T22:55:22.126Z,98268.88
2023-10-10T22:57:52.392Z,98260.13
2023-10-10T23:00:30.304Z,98274.16
2023-10-10T23:02:59.752Z,98264.59
2023-10-10T23:05:28.427Z,98265.41
2023-10-10T23:07:58.635Z,98262.19
2023-10-10T23:10:25.602Z,98260.25
2023-10-10T23:12:53.420Z,98259.16
2023-10-10T23:15:27.874Z,98256.41
2023-10-10T23:17:59.925Z,98262.09
2023-10-10T23:20:28.680Z,98263.88
2023-10-10T23:23:00.019Z,98268.00
2023-10-10T23:25:27.502Z,98262.75
2023-10-10T23:27:57.960Z,98259.00
2023-10-10T23:30:28.917Z,98266.00
2023-10-10T23:32:57.737Z,98262.31
2023-10-10T23:35:25.984Z,98270.88
2023-10-10T23:38:01.618Z,98269.31
2023-10-10T23:40:58.391Z,98264.03
2023-10-10T23:43:25.222Z,98270.28
2023-10-10T23:45:56.030Z,98266.25
2023-10-10T23:48:30.323Z,98259.28
2023-10-10T23:50:58.199Z,98257.94
2023-10-10T23:53:25.092Z,98261.13
2023-10-10T23:55:56.047Z,98255.19
2023-10-10T23:58:26.576Z,98255.72
